createdAt,value
2023-05-05T08:45:49.497Z,33.90
2023-05-05T08:46:47.105Z,34.17
2023-05-05T08:47:46.932Z,34.34
2023-05-05T08:54:24.924Z,36.93
2023-05-05T08:55:23.612Z,36.63
2023-05-05T08:56:23.693Z,35.66
2023-05-05T08:57:24.815Z,35.68
2023-05-05T08:58:23.674Z,35.96
2023-05-05T08:59:23.546Z,36.37
2023-05-05T09:00:23.728Z,36.70
2023-05-05T09:01:26.042Z,36.93
2023-05-05T09:02:23.630Z,36.72
2023-05-05T09:03:23.656Z,36.60
2023-05-05T09:04:23.682Z,36.58
2023-05-05T09:05:23.712Z,36.91
2023-05-05T09:06:24.410Z,37.12
2023-05-05T09:07:23.740Z,36.81
2023-05-05T09:08:23.768Z,36.97
2023-05-05T09:09:23.815Z,37.27
2023-05-05T09:10:25.379Z,37.60
2023-05-05T09:11:23.899Z,37.93
2023-05-05T09:12:23.924Z,37.79
2023-05-05T09:13:23.908Z,38.02
2023-05-05T09:14:23.888Z,38.07
2023-05-05T09:15:24.016Z,38.04
2023-05-05T09:16:23.985Z,37.54
2023-05-05T09:17:24.183Z,36.78
2023-05-05T09:18:24.053Z,36.44
2023-05-05T09:19:24.048Z,35.44
2023-05-05T09:20:24.105Z,35.57
2023-05-05T09:21:24.135Z,35.53
2023-05-05T09:22:24.113Z,35.16
2023-05-05T09:23:24.217Z,34.82
2023-05-05T09:24:24.252Z,35.08
2023-05-05T09:25:24.183Z,35.26
2023-05-05T09:26:28.893Z,35.19
2023-05-05T09:27:24.279Z,35.33
2023-05-05T09:28:24.248Z,35.55
2023-05-05T09:29:24.271Z,35.93
2023-05-05T09:30:24.261Z,36.03
2023-05-05T09:31:24.275Z,36.26
2023-05-05T09:32:24.333Z,36.45
2023-05-05T09:33:24.214Z,36.64
2023-05-05T09:34:24.192Z,36.96
2023-05-05T09:35:24.223Z,37.24
2023-05-05T09:36:24.429Z,37.55
2023-05-05T09:37:24.955Z,37.61
2023-05-05T09:38:24.271Z,37.70
2023-05-05T09:39:24.272Z,38.10
2023-05-05T09:40:24.146Z,38.03
2023-05-05T09:41:24.155Z,37.95
2023-05-05T09:42:24.278Z,38.14
2023-05-05T09:43:24.190Z,38.17
2023-05-05T09:44:24.159Z,38.22
2023-05-05T09:45:24.156Z,37.85
2023-05-05T09:46:24.282Z,37.22
2023-05-05T09:47:29.603Z,36.66
2023-05-05T09:48:25.258Z,36.81
2023-05-05T09:49:24.300Z,37.46
2023-05-05T09:50:24.199Z,37.88
2023-05-05T09:51:24.203Z,37.26
2023-05-05T09:52:24.220Z,37.67
2023-05-05T09:53:24.215Z,37.63
2023-05-05T09:54:24.250Z,37.74
2023-05-05T09:55:38.365Z,37.91
2023-05-05T09:56:24.161Z,38.39
2023-05-05T09:57:24.256Z,38.49
2023-05-05T09:58:24.198Z,38.73
2023-05-05T09:59:24.182Z,38.62
2023-05-05T10:00:24.160Z,38.40
2023-05-05T10:01:38.328Z,38.19
2023-05-05T10:02:24.329Z,38.46
2023-05-05T10:03:24.224Z,37.74
2023-05-05T10:04:24.567Z,37.76
2023-05-05T10:05:24.482Z,37.70
2023-05-05T10:06:25.042Z,37.91
2023-05-05T10:09:44.682Z,38.03
2023-05-05T10:12:17.480Z,38.27
2023-05-05T10:13:17.580Z,38.88
2023-05-05T10:14:17.288Z,39.30
2023-05-05T10:15:17.277Z,39.36
2023-05-05T10:16:17.678Z,39.48
2023-05-05T10:17:17.423Z,39.18
2023-05-05T10:18:17.338Z,38.94
2023-05-05T10:19:17.309Z,39.16
2023-05-05T10:38:56.774Z,37.39
2023-05-05T10:41:56.295Z,38.12
2023-05-05T10:42:57.045Z,38.61
2023-05-05T11:09:21.010Z,37.38
2023-05-05T11:10:21.094Z,37.68
2023-05-05T11:11:20.773Z,38.13
2023-05-05T11:12:20.850Z,37.76
2023-05-05T11:13:20.958Z,37.66
2023-05-05T11:14:20.789Z,37.99
2023-05-05T11:15:20.806Z,38.28
2023-05-05T11:16:20.842Z,38.50
2023-05-05T11:17:20.808Z,38.62
2023-05-05T11:18:20.759Z,38.52
2023-05-05T11:19:20.815Z,37.84
2023-05-05T11:20:21.452Z,37.41
2023-05-05T11:21:20.826Z,37.22
2023-05-05T11:22:20.736Z,37.64
2023-05-05T11:23:20.722Z,37.90
2023-05-05T11:24:20.772Z,37.87
2023-05-05T11:25:20.802Z,37.75
2023-05-05T11:26:20.703Z,37.79
2023-05-05T11:27:20.793Z,37.67
2023-05-05T11:28:20.692Z,37.66
2023-05-05T11:29:20.684Z,37.00
2023-05-05T11:30:20.686Z,37.00
2023-05-05T11:31:20.801Z,36.99
2023-05-05T11:32:20.673Z,37.40
2023-05-05T11:33:20.885Z,37.23
2023-05-05T11:34:20.791Z,36.98
2023-05-05T11:35:20.823Z,37.36
2023-05-05T11:36:20.913Z,36.26
2023-05-05T11:37:20.938Z,35.55
2023-05-05T11:38:20.918Z,35.73
2023-05-05T11:39:21.036Z,35.73
2023-05-05T11:40:21.106Z,35.77
2023-05-05T11:41:21.338Z,35.77
2023-05-05T11:42:21.086Z,35.67
2023-05-05T11:43:21.214Z,34.88
2023-05-05T11:44:21.180Z,34.92
2023-05-05T11:45:23.466Z,34.22
2023-05-05T11:46:21.245Z,34.51
2023-05-05T11:47:21.241Z,34.94
2023-05-05T11:48:21.353Z,34.81
2023-05-05T11:49:21.303Z,33.78
2023-05-05T11:50:21.343Z,33.69
2023-05-05T11:51:21.466Z,33.87
2023-05-05T11:52:21.392Z,33.76
2023-05-05T11:53:21.426Z,33.73
2023-05-05T11:54:21.472Z,33.25
2023-05-05T11:55:21.533Z,33.19
2023-05-05T11:56:22.024Z,33.39
2023-05-05T11:57:21.744Z,33.38
2023-05-05T11:58:21.906Z,33.21
2023-05-05T11:59:21.608Z,32.91
2023-05-05T12:00:21.643Z,32.94
2023-05-05T12:01:22.528Z,32.55
2023-05-05T12:02:21.721Z,31.99
2023-05-05T12:03:21.832Z,31.53
2023-05-05T12:04:22.507Z,31.36
2023-05-05T12:05:21.833Z,31.42
2023-05-05T12:06:21.866Z,31.39
2023-05-05T12:07:21.973Z,30.93
2023-05-05T12:08:22.072Z,30.35
2023-05-05T12:09:21.995Z,30.30
2023-05-05T12:10:22.005Z,30.25
2023-05-05T12:11:22.009Z,30.39
2023-05-05T12:12:22.103Z,30.24
2023-05-05T12:13:23.202Z,30.22
2023-05-05T12:14:22.038Z,30.22
2023-05-05T12:15:22.078Z,30.13
2023-05-05T12:16:22.149Z,30.16
2023-05-05T12:17:22.268Z,30.03
2023-05-05T12:18:22.247Z,29.98
2023-05-05T12:19:22.212Z,29.78
2023-05-05T12:20:22.269Z,29.81
2023-05-05T12:21:22.292Z,30.04
2023-05-05T12:22:22.273Z,29.93
2023-05-05T12:23:22.357Z,29.78
2023-05-05T12:24:22.318Z,29.85
2023-05-05T12:25:23.535Z,29.95
2023-05-05T12:26:22.308Z,30.11
2023-05-05T12:27:22.315Z,30.10
2023-05-05T12:49:45.105Z,28.16
2023-05-05T12:50:44.600Z,28.28
2023-05-05T12:51:45.289Z,28.37
2023-05-05T12:52:44.589Z,28.26
2023-05-05T12:53:44.596Z,28.13
2023-05-05T13:03:01.312Z,28.09
2023-05-05T13:04:01.365Z,28.17
2023-05-05T13:05:01.607Z,28.26
2023-05-05T13:06:01.365Z,28.21
2023-05-05T13:13:23.905Z,28.37
2023-05-05T13:14:23.577Z,28.57
2023-05-05T13:15:23.759Z,28.51
2023-05-05T13:16:23.840Z,28.50
2023-05-05T13:17:23.602Z,28.61
2023-05-05T13:18:23.584Z,28.60
2023-05-05T13:19:23.608Z,28.64
2023-05-05T13:20:23.640Z,28.79
2023-05-05T13:21:23.503Z,28.93
2023-05-05T13:22:23.508Z,28.92
2023-05-05T13:23:25.786Z,28.76
2023-05-05T13:24:34.451Z,28.40
2023-05-05T13:25:24.620Z,28.43
2023-05-05T13:26:23.496Z,28.40
2023-05-05T13:27:23.514Z,28.40
2023-05-05T13:28:23.471Z,28.36
2023-05-05T13:29:27.282Z,28.12
2023-05-05T13:30:24.507Z,28.12
2023-05-05T13:31:23.526Z,28.26
2023-05-05T13:32:23.631Z,28.48
2023-05-05T13:33:23.447Z,28.62
2023-05-05T13:34:23.476Z,28.72
2023-05-05T13:35:23.472Z,28.81
2023-05-05T13:36:23.516Z,28.90
2023-05-05T13:37:23.431Z,28.60
2023-05-05T13:38:23.428Z,28.68
2023-05-05T13:39:23.432Z,27.98
2023-05-05T13:40:25.773Z,28.03
2023-05-05T13:41:24.679Z,28.10
2023-05-05T13:42:23.541Z,28.26
2023-05-05T13:43:23.717Z,28.37
2023-05-05T13:44:23.739Z,28.51
2023-05-05T13:45:24.187Z,28.53
2023-05-05T13:46:24.698Z,28.56
2023-05-05T13:47:24.740Z,28.54
2023-05-05T13:48:23.756Z,28.52
2023-05-05T13:49:23.817Z,28.49
2023-05-05T13:50:23.808Z,28.25
2023-05-05T13:51:25.822Z,28.03
2023-05-05T13:52:23.918Z,27.95
2023-05-05T13:53:23.938Z,27.97
2023-05-05T13:54:23.999Z,27.94
2023-05-05T13:55:24.019Z,28.03
2023-05-05T13:56:24.009Z,28.23
2023-05-05T13:57:24.073Z,28.31
2023-05-05T13:58:24.124Z,28.36
2023-05-05T13:59:24.174Z,28.37
2023-05-05T14:00:24.083Z,28.19
2023-05-05T14:01:24.261Z,27.74
2023-05-05T14:02:24.854Z,27.68
2023-05-05T14:03:24.307Z,27.66
2023-05-05T14:04:24.495Z,27.76
2023-05-05T14:05:24.327Z,27.96
2023-05-05T14:06:25.248Z,28.13
2023-05-05T14:07:24.420Z,28.28
2023-05-05T14:08:24.433Z,28.35
2023-05-05T14:09:24.456Z,28.18
2023-05-05T14:10:25.213Z,28.15
2023-05-05T14:11:24.508Z,28.10
2023-05-05T14:12:25.185Z,28.17
2023-05-05T14:13:24.570Z,27.91
2023-05-05T14:14:24.588Z,27.68
2023-05-05T14:15:24.663Z,27.75
2023-05-05T14:16:24.698Z,27.74
2023-05-05T14:17:24.804Z,27.91
2023-05-05T14:18:24.820Z,28.04
2023-05-05T14:19:24.778Z,27.91
2023-05-05T14:20:24.848Z,28.04
2023-05-05T14:21:24.889Z,27.93
2023-05-05T14:22:24.902Z,28.08
2023-05-05T14:23:25.094Z,28.26
2023-05-05T14:24:25.029Z,28.26
2023-05-05T14:25:25.032Z,27.98
2023-05-05T14:26:25.044Z,28.01
2023-05-05T14:27:25.093Z,27.99
2023-05-05T14:28:25.206Z,28.03
2023-05-05T14:29:25.249Z,28.16
2023-05-05T14:30:25.216Z,28.16
2023-05-05T14:31:25.259Z,28.13
2023-05-05T14:32:25.385Z,28.07
2023-05-05T14:33:25.390Z,28.12
2023-05-05T14:34:25.349Z,28.20
2023-05-05T14:35:25.318Z,28.25
2023-05-05T14:36:25.384Z,28.20
2023-05-05T14:37:25.360Z,28.35
2023-05-05T14:38:25.394Z,28.44
2023-05-05T14:39:25.372Z,28.48
2023-05-05T14:40:25.530Z,28.53
2023-05-05T14:41:26.183Z,28.64
2023-05-05T14:42:25.478Z,28.76
2023-05-05T14:43:26.213Z,28.54
2023-05-05T14:44:25.412Z,28.47
2023-05-05T14:45:25.422Z,28.47
2023-05-05T14:46:25.577Z,28.50
2023-05-05T14:47:25.491Z,28.37
2023-05-05T14:48:25.488Z,28.41
2023-05-05T14:49:25.477Z,28.57
2023-05-05T14:50:25.751Z,28.66
2023-05-05T14:51:25.524Z,28.68
2023-05-05T14:52:25.569Z,28.73
2023-05-05T14:53:25.632Z,28.77
2023-05-05T14:54:28.670Z,28.83
2023-05-05T15:32:34.121Z,27.20
2023-05-05T15:33:33.506Z,27.32
2023-05-05T15:34:33.909Z,27.32
2023-05-05T15:35:34.838Z,27.34
2023-05-05T15:38:20.620Z,27.43
2023-05-05T15:39:20.128Z,27.69
2023-05-05T15:40:20.133Z,27.75
2023-05-05T15:41:20.107Z,27.88
2023-05-05T15:42:20.104Z,27.95
2023-05-05T15:43:20.222Z,27.96
2023-05-05T15:44:20.156Z,28.03
2023-05-05T15:45:20.063Z,28.03
2023-05-05T15:46:20.134Z,27.77
2023-05-05T15:47:20.142Z,27.94
2023-05-05T15:48:20.871Z,28.13
2023-05-05T15:49:20.059Z,28.19
2023-05-05T15:50:20.168Z,28.25
2023-05-05T15:51:20.776Z,28.20
2023-05-05T15:52:20.060Z,28.22
2023-05-05T15:53:20.058Z,28.04
2023-05-05T15:54:20.086Z,27.77
2023-05-05T15:55:20.022Z,27.85
2023-05-05T15:56:20.039Z,27.82
2023-05-05T15:57:19.989Z,27.78
2023-05-05T15:58:20.111Z,27.78
2023-05-05T15:59:20.063Z,27.85
2023-05-05T16:00:20.121Z,27.88
2023-05-05T16:01:20.273Z,27.84
2023-05-05T16:02:20.246Z,27.77
2023-05-05T16:03:20.495Z,27.70
2023-05-05T16:04:20.439Z,27.49
2023-05-05T16:05:22.711Z,27.38
2023-05-05T16:06:20.386Z,27.35
2023-05-05T16:07:20.370Z,27.34
2023-05-05T16:08:20.313Z,27.26
2023-05-05T16:09:20.334Z,27.18
2023-05-05T16:10:20.550Z,27.16
2023-05-05T16:11:22.402Z,27.21
2023-05-05T16:12:20.354Z,27.27
2023-05-05T16:13:20.343Z,27.36
2023-05-05T16:14:20.326Z,27.31
2023-05-05T16:15:20.271Z,27.25
2023-05-05T16:16:20.378Z,26.87
2023-05-05T16:17:22.369Z,26.77
2023-05-05T16:18:20.940Z,26.82
2023-05-05T16:19:20.564Z,26.84
2023-05-05T16:20:20.579Z,26.83
2023-05-05T16:21:20.695Z,27.00
2023-05-05T16:22:20.684Z,27.08
2023-05-05T16:31:19.417Z,26.16
2023-05-05T16:32:07.224Z,26.30
2023-05-05T16:33:07.257Z,26.31
2023-05-05T16:34:07.275Z,26.36
2023-05-05T16:35:07.574Z,26.50
2023-05-05T16:36:07.280Z,26.61
2023-05-05T16:37:07.303Z,26.66
2023-05-05T16:38:07.575Z,26.49
2023-05-05T16:39:07.189Z,26.55
2023-05-05T16:40:07.306Z,26.41
2023-05-05T16:41:07.259Z,26.47
2023-05-05T16:42:07.127Z,26.51
2023-05-05T16:56:20.928Z,25.60
2023-05-05T16:57:20.429Z,25.81
2023-05-05T16:58:20.418Z,25.83
2023-05-05T16:59:20.421Z,25.67
2023-05-05T17:00:20.430Z,25.58
2023-05-05T17:01:20.480Z,25.43
2023-05-05T17:02:20.444Z,25.39
2023-05-05T17:03:20.385Z,25.46
2023-05-05T17:04:20.362Z,25.58
2023-05-05T17:05:20.469Z,25.69
2023-05-05T17:06:20.457Z,25.78
2023-05-05T17:07:20.626Z,25.85
2023-05-05T17:08:21.396Z,25.92
2023-05-05T17:09:20.322Z,25.98
2023-05-05T17:10:20.374Z,26.04
2023-05-05T17:11:20.388Z,26.06
2023-05-05T17:12:20.422Z,25.68
2023-05-05T17:13:20.390Z,25.62
2023-05-05T17:14:20.333Z,25.70
2023-05-05T17:15:20.325Z,25.77
2023-05-05T17:16:20.360Z,25.80
2023-05-05T17:17:20.661Z,25.81
2023-05-05T17:18:20.430Z,25.82
2023-05-05T17:19:20.451Z,25.88
2023-05-05T17:20:20.498Z,25.78
2023-05-05T17:21:20.468Z,25.63
2023-05-05T17:22:20.675Z,25.47
2023-05-05T17:23:20.497Z,25.44
2023-05-05T17:24:20.583Z,25.47
2023-05-05T17:25:20.610Z,25.49
2023-05-05T17:26:20.694Z,25.39
2023-05-05T17:27:20.721Z,25.06
2023-05-05T17:28:20.791Z,24.63
2023-05-05T17:29:20.803Z,24.59
2023-05-05T17:30:20.828Z,24.75
2023-05-05T17:31:20.980Z,24.85
2023-05-05T17:32:20.943Z,24.95
2023-05-05T17:33:20.999Z,24.94
2023-05-05T17:34:20.976Z,24.72
2023-05-05T17:35:20.997Z,24.54
2023-05-05T17:36:21.073Z,24.22
2023-05-05T17:37:21.081Z,24.27
2023-05-05T17:38:21.129Z,24.26
2023-05-05T17:39:21.193Z,24.18
2023-05-05T17:40:21.229Z,24.14
2023-05-05T17:41:21.299Z,24.22
2023-05-05T17:42:21.312Z,24.32
2023-05-05T17:43:21.360Z,24.41
2023-05-05T17:44:21.531Z,24.42
2023-05-05T17:45:21.644Z,24.50
2023-05-05T17:46:21.668Z,24.46
2023-05-05T17:47:21.502Z,24.44
2023-05-05T17:48:21.514Z,24.34
2023-05-05T17:49:21.506Z,23.91
2023-05-05T17:50:21.421Z,23.82
2023-05-05T17:51:21.474Z,23.87
2023-05-05T17:52:21.485Z,23.95
2023-05-05T17:53:21.397Z,24.10
2023-05-05T18:05:28.950Z,23.17
2023-05-05T18:06:28.238Z,23.46
2023-05-05T18:07:28.147Z,23.52
2023-05-05T18:08:28.151Z,23.49
2023-05-05T18:09:28.162Z,23.50
2023-05-05T18:10:28.175Z,23.31
2023-05-05T18:11:28.178Z,23.37
2023-05-05T18:12:28.202Z,23.34
2023-05-05T18:13:28.234Z,23.30
2023-05-05T18:14:28.448Z,23.27
2023-05-05T18:15:28.212Z,23.21
2023-05-05T18:16:28.118Z,23.15
2023-05-05T18:17:28.134Z,23.16
2023-05-05T18:18:28.182Z,23.18
2023-05-05T18:19:28.070Z,23.13
2023-05-05T18:20:28.121Z,23.16
2023-05-05T18:21:28.233Z,23.13
2023-05-05T18:22:28.048Z,23.12
2023-05-05T18:23:28.070Z,23.09
2023-05-05T18:24:28.106Z,23.07
2023-05-05T18:25:28.055Z,23.07
2023-05-05T18:26:28.084Z,22.99
2023-05-05T18:27:28.086Z,22.81
2023-05-05T18:28:28.146Z,22.71
2023-05-05T18:29:28.202Z,22.66
2023-05-05T18:30:28.193Z,22.60
2023-05-05T18:31:28.283Z,22.56
2023-05-05T18:32:28.325Z,22.50
2023-05-05T18:33:28.357Z,22.43
2023-05-05T18:34:28.346Z,22.23
2023-05-05T18:35:28.358Z,22.10
2023-05-05T18:36:28.368Z,21.99
2023-05-05T18:37:28.494Z,21.83
2023-05-05T18:38:28.408Z,21.73
2023-05-05T18:39:28.490Z,21.46
2023-05-05T18:40:28.503Z,21.39
2023-05-05T18:41:28.501Z,21.34
2023-05-05T18:42:28.579Z,21.26
2023-05-05T18:43:28.513Z,21.20
2023-05-05T18:44:28.604Z,21.22
2023-05-05T18:45:28.626Z,21.24
2023-05-05T18:46:28.788Z,21.24
2023-05-05T18:47:28.728Z,21.18
2023-05-05T18:48:28.729Z,21.18
2023-05-05T18:49:31.147Z,21.17
2023-05-05T18:50:28.642Z,21.14
2023-05-05T18:51:28.764Z,21.08
2023-05-05T18:52:28.666Z,21.02
2023-05-05T18:53:28.690Z,20.93
2023-05-05T18:54:28.690Z,20.85
2023-05-05T18:55:28.683Z,20.73
2023-05-05T18:56:28.633Z,20.62
2023-05-05T18:57:29.363Z,20.48
2023-05-05T18:58:28.595Z,20.34
2023-05-05T18:59:28.620Z,20.24
2023-05-05T19:00:28.657Z,20.20
2023-05-05T19:01:28.616Z,20.11
2023-05-05T19:02:28.660Z,20.06
2023-05-05T19:03:28.634Z,19.99
2023-05-05T19:04:31.786Z,19.96
2023-05-05T19:05:28.566Z,19.93
2023-05-05T19:06:28.696Z,19.91
2023-05-05T19:07:35.441Z,19.92
2023-05-05T19:08:29.596Z,19.87
2023-05-05T19:09:28.682Z,19.85
2023-05-05T19:10:28.524Z,19.82
2023-05-05T19:11:28.576Z,19.77
2023-05-05T19:12:28.530Z,19.71
2023-05-05T19:13:28.515Z,19.67
2023-05-05T19:14:28.566Z,19.67
2023-05-05T19:15:28.523Z,19.61
2023-05-05T19:16:30.071Z,19.59
2023-05-05T19:17:28.526Z,19.57
2023-05-05T19:18:28.506Z,19.55
2023-05-05T19:19:28.466Z,19.56
2023-05-05T19:20:28.492Z,19.58
2023-05-05T19:21:28.519Z,19.62
2023-05-05T19:29:00.269Z,19.55
2023-05-05T19:29:47.280Z,19.81
2023-05-05T19:30:47.288Z,20.16
2023-05-05T19:31:47.492Z,20.30
2023-05-05T19:32:47.288Z,20.39
2023-05-05T19:33:47.256Z,20.46
2023-05-05T19:34:47.296Z,20.48
2023-05-05T19:35:47.264Z,20.47
2023-05-05T19:36:47.216Z,20.54
2023-05-05T19:37:47.399Z,20.61
2023-05-05T19:38:47.235Z,20.67
2023-05-05T19:39:47.591Z,20.72
2023-05-05T19:40:47.249Z,20.76
2023-05-05T19:41:47.201Z,20.84
2023-05-05T19:42:47.175Z,20.95
2023-05-05T19:43:47.244Z,21.01
2023-05-05T19:44:47.190Z,21.01
2023-05-05T20:27:16.353Z,14.61
2023-05-05T20:28:15.420Z,14.76
2023-05-05T20:29:15.419Z,14.75
2023-05-05T20:30:15.440Z,14.72
2023-05-05T20:31:15.445Z,14.69
2023-05-05T20:32:15.431Z,14.65
2023-05-05T20:33:15.460Z,14.65
2023-05-05T20:34:15.534Z,14.62
2023-05-05T20:35:15.393Z,14.60
2023-05-05T20:36:15.364Z,14.58
2023-05-05T20:37:15.377Z,14.56
2023-05-05T20:38:15.375Z,14.53
2023-05-05T20:39:15.372Z,14.52
2023-05-05T20:40:15.324Z,14.47
2023-05-05T20:41:15.324Z,14.48
2023-05-05T20:42:15.293Z,14.49
2023-05-05T20:43:15.477Z,14.48
2023-05-05T20:44:15.350Z,14.50
2023-05-05T20:45:15.303Z,14.54
2023-05-05T20:46:15.342Z,14.54
2023-05-05T20:47:15.307Z,14.55
2023-05-05T20:48:15.269Z,14.59
2023-05-05T20:49:15.285Z,14.64
2023-05-05T20:50:15.250Z,14.68
2023-05-05T20:51:15.298Z,14.70
2023-05-05T20:52:15.296Z,14.69
2023-05-05T20:53:15.374Z,14.71
2023-05-05T20:54:15.402Z,14.70
2023-05-05T20:55:15.429Z,14.71
2023-05-05T20:56:15.443Z,14.74
2023-05-05T20:57:15.453Z,14.76
2023-05-05T20:58:15.506Z,14.80
2023-05-05T20:59:15.581Z,14.84
2023-05-05T21:00:15.507Z,15.06
2023-05-05T21:01:15.620Z,15.11
2023-05-05T21:02:15.575Z,15.13
2023-05-05T21:03:15.695Z,15.12
2023-05-05T21:04:15.678Z,15.10
2023-05-05T21:05:15.690Z,15.10
2023-05-05T21:06:15.707Z,15.13
2023-05-05T21:07:15.767Z,15.12
2023-05-05T21:08:15.818Z,15.13
2023-05-05T21:09:15.840Z,15.16
2023-05-05T21:10:15.938Z,15.26
2023-05-05T21:11:15.937Z,15.39
2023-05-05T21:12:15.989Z,15.39
2023-05-05T21:13:16.051Z,15.33
2023-05-05T21:14:16.010Z,15.34
2023-05-05T21:15:16.152Z,15.30
2023-05-05T21:16:16.138Z,15.27
2023-05-05T21:17:16.044Z,15.28
2023-05-05T21:18:16.098Z,15.27
2023-05-05T21:19:16.083Z,15.26
2023-05-05T21:20:16.134Z,15.25
2023-05-05T21:21:16.112Z,15.24
2023-05-05T21:22:16.113Z,15.25
2023-05-05T21:23:16.173Z,15.18
2023-05-05T21:24:16.173Z,15.16
2023-05-05T21:25:16.233Z,15.13
2023-05-05T21:26:16.210Z,15.10
2023-05-05T21:27:16.249Z,15.03
2023-05-05T21:28:16.288Z,14.99
2023-05-05T21:29:16.365Z,14.97
2023-05-05T21:30:16.836Z,14.95
2023-05-05T21:32:16.365Z,14.91
2023-05-05T21:33:16.333Z,14.86
2023-05-05T21:34:16.346Z,14.75
2023-05-05T21:35:16.551Z,14.65
2023-05-05T22:09:54.616Z,14.16
2023-05-05T22:10:53.867Z,14.37
2023-05-05T22:50:10.389Z,13.45
2023-05-05T22:51:10.239Z,13.67
2023-05-05T22:52:10.221Z,13.72
2023-05-05T22:53:10.326Z,13.73
2023-05-05T22:54:10.175Z,13.74
2023-05-05T22:55:10.313Z,13.75
2023-05-05T22:56:10.225Z,13.76
2023-05-05T22:57:10.162Z,13.79
2023-05-05T22:58:10.164Z,13.83
2023-05-05T22:59:10.188Z,13.88
2023-05-05T23:00:10.183Z,13.91
2023-05-05T23:01:10.221Z,13.92
2023-05-05T23:02:10.118Z,13.94
2023-05-05T23:03:10.134Z,13.97
2023-05-05T23:04:10.192Z,14.02
2023-05-05T23:05:10.521Z,14.05
2023-05-05T23:06:10.117Z,14.05
2023-05-05T23:07:10.122Z,14.06
2023-05-05T23:08:10.178Z,14.09
2023-05-05T23:09:10.277Z,14.12
2023-05-05T23:10:11.151Z,14.16
2023-05-05T23:11:10.145Z,14.18
2023-05-05T23:12:10.157Z,14.13
2023-05-05T23:13:10.226Z,14.13
2023-05-05T23:14:10.256Z,14.11
2023-05-05T23:15:10.537Z,14.12
2023-05-05T23:16:10.353Z,14.11
2023-05-05T23:17:10.379Z,14.13
2023-05-05T23:18:10.341Z,14.14
2023-05-05T23:19:10.333Z,14.17
2023-05-05T23:20:10.425Z,14.15
2023-05-05T23:21:10.436Z,14.15
2023-05-05T23:22:10.557Z,14.13
2023-05-05T23:23:10.463Z,14.11
2023-05-05T23:24:10.513Z,14.08
2023-05-05T23:25:10.836Z,14.07
2023-05-05T23:26:10.653Z,14.06
2023-05-05T23:27:10.694Z,14.08
2023-05-05T23:28:10.757Z,14.12
2023-05-05T23:29:10.890Z,14.15
2023-05-05T23:30:10.837Z,14.21
2023-05-05T23:31:10.825Z,14.24
2023-05-05T23:32:10.885Z,14.25
2023-05-05T23:33:10.919Z,14.25
2023-05-05T23:34:11.009Z,14.23
2023-05-05T23:35:11.355Z,14.24
2023-05-05T23:36:11.069Z,14.19
2023-05-05T23:37:11.093Z,14.17
2023-05-05T23:38:11.156Z,14.14
2023-05-05T23:39:11.178Z,14.14
2023-05-05T23:40:11.163Z,14.13
2023-05-05T23:41:11.176Z,14.11
2023-05-05T23:42:11.264Z,14.14
2023-05-05T23:43:11.261Z,14.15
2023-05-05T23:44:11.457Z,14.16
2023-05-05T23:45:11.749Z,14.17
2023-05-05T23:46:11.467Z,14.14
2023-05-05T23:47:11.556Z,14.15
2023-05-05T23:48:11.569Z,14.18
2023-05-05T23:49:12.401Z,14.16
2023-05-05T23:50:11.634Z,14.12
